Workouts Map

户外运动 7 年 ,地图展示的是 2024 年的轨迹


2024 Journey
84 Total 584.49 KM
76 Runs 542.46 KM
4 Hikes 14.36 KM
3 Rides 23.97 KM
1 爬山s 3.70 KM
13 day Streak
149 Avg Heart Rate

2023 Journey
266 Total 1458.16 KM
210 Runs 1164.11 KM
29 Hikes 115.04 KM
25 Rides 169.11 KM
2 Climbs 9.90 KM
18 day Streak
138 Avg Heart Rate

2022 Journey
146 Total 704.63 KM
138 Runs 634.70 KM
4 Climbs 34.64 KM
2 Hikes 16.61 KM
2 Rides 18.69 KM
7 day Streak
146 Avg Heart Rate

2021 Journey
39 Total 202.56 KM
35 Runs 189.80 KM
3 Hikes 7.72 KM
1 Climbs 5.04 KM
2 day Streak
144 Avg Heart Rate

2020 Journey
40 Total 228.31 KM
32 Runs 168.97 KM
6 Climbs 35.66 KM
2 Hikes 23.69 KM
3 day Streak
133 Avg Heart Rate

2019 Journey
57 Total 248.59 KM
57 Runs 248.59 KM
5 day Streak
143 Avg Heart Rate

2018 Journey
5 Total 28.97 KM
5 Runs 28.97 KM
1 day Streak

Total Journey
637 Total 3455.72 KM
553 Runs 2977.60 KM
40 Hikes 177.41 KM
30 Rides 211.77 KM
13 Climbs 85.23 KM
1 爬山s 3.70 KM
18 day Streak
141 Avg Heart Rate

TypeKMPaceBPMTimeDate
Run5.828'46"13751min2024-05-24
Run5.717'29"16542min2024-05-23
Run2.368'54"13821min2024-05-22
Run5.227'53"17441min2024-05-21
Run6.527'12"15747min2024-05-20
Run6.146'45"15241min2024-05-16
Run6.297'05"15144min2024-05-15
Run12.738'03"150102min2024-05-12
Run6.009'42"14058min2024-05-09
Run5.577'41"14342min2024-05-08
Run6.337'34"15647min2024-05-07
Run6.026'43"17040min2024-05-05
Run3.018'25"15425min2024-05-04
Run6.086'21"15938min2024-05-03
Ride9.3313'48"92128min2024-05-02
Run8.387'17"15861min2024-05-01
Run3.788'04"13730min2024-04-30
Run2.398'40"13320min2024-04-29
Run3.858'48"13433min2024-04-28
Run11.598'15"13595min2024-04-27
Run6.388'24"14953min2024-04-26
Run4.5610'21"47min2024-04-25
Run7.1312'53"15991min2024-04-24
Hike3.5211'52"11241min2024-04-22
Run21.627'05"170153min2024-04-21
Run5.797'54"15245min2024-04-20
Run3.519'53"12734min2024-04-17
Run5.578'09"13245min2024-04-17
Run9.557'45"15574min2024-04-16
Run6.938'14"14857min2024-04-15
Run21.567'06"166153min2024-04-14
Run12.156'58"84min2024-04-11
Run11.407'03"080min2024-04-07
Run10.117'12"72min2024-04-02
Run10.007'15"16272min2024-03-31
Run8.017'16"17258min2024-03-29
Run4.568'25"14838min2024-03-25
Run16.196'57"172112min2024-03-24
Run6.407'38"15548min2024-03-22
Run6.517'29"15348min2024-03-21
Run4.517'02"17031min2024-03-20
Run6.117'30"15545min2024-03-19
Run12.747'52"155100min2024-03-16
爬山3.7011'18"41min2024-03-14
Run3.5111'44"12341min2024-03-14
Ride10.068'03"11281min2024-03-13
Run5.068'26"14842min2024-03-12
Run10.276'59"16671min2024-03-11
Run10.576'23"17467min2024-03-09
Run6.317'53"15549min2024-03-08
Run3.017'56"14623min2024-03-06
Run5.158'10"14742min2024-03-05
Run7.577'10"15954min2024-03-04
Run5.736'47"15638min2024-03-03
Run3.678'00"14629min2024-03-02
Hike5.4011'08"10960min2024-03-01
Run2.5612'02"12130min2024-02-29
Run5.137'38"14939min2024-02-28
Run5.017'34"37min2024-02-27
Run5.677'22"16441min2024-02-26
Run3.6610'29"38min2024-02-25
Run20.248'12"151166min2024-02-04
Run7.9311'35"10991min2024-02-03
Run5.796'35"14938min2024-02-01
Run5.676'40"37min2024-01-31
Run5.227'15"37min2024-01-27
Run3.676'47"24min2024-01-26
Ride4.585'08"11223min2024-01-19
Run3.557'01"15124min2024-01-17
Run5.036'32"15932min2024-01-16
Run5.526'38"15936min2024-01-15
Hike1.4510'02"14min2024-01-13
Run5.316'42"35min2024-01-12
Run5.368'06"13343min2024-01-11
Run7.936'49"16254min2024-01-10
Run5.676'59"15639min2024-01-09
Run4.9510'08"15050min2024-01-08
Run10.668'01"15485min2024-01-07
Run13.017'10"16793min2024-01-06
Run6.306'52"16543min2024-01-05
Hike3.9918'29"073min2024-01-04
Run5.146'37"034min2024-01-03
Run5.217'22"15238min2024-01-02
Run12.347'07"16087min2024-01-01